Mayfield, Oklahoma
Current Conditions -  °F | °C
As of 3:55 AM on Tuesday 21 Oct 2014 (Local Time) from KELK Reporting Station
Clear Clear  
Wind Chill: 61°   Ceiling: Unl
Heat Index: 61°   Visibility: 10mi
Dew Point: 59°   Wind: 5mph
Humidity: 94%   Direction: 200°SSW
Pressure: 30.11"   Gusts: NA
Location:  35.34°N, 99.88°W
Report Text: KELK 210855Z AUTO 20004KT 10SM CLR 16/15 A3011 RMK AO2
Loading
Personal Weather Stations






























Interactive Weather Map
Tropical Storm Tracking
New forecast layout! Learn more

10-Day Weather Forecast

Advertisements
Track Severe Weather on mobile